sensor_id;sensor_type;location;lat;lon;timestamp;P1;durP1;ratioP1;P2;durP2;ratioP2
805;SDS011;385;48.502;9.230;2022-09-13T00:00:32;48.00;;;3.83;;
805;SDS011;385;48.502;9.230;2022-09-13T00:03:00;45.97;;;3.90;;
805;SDS011;385;48.502;9.230;2022-09-13T00:05:28;52.23;;;4.30;;
805;SDS011;385;48.502;9.230;2022-09-13T00:07:55;46.03;;;3.43;;
805;SDS011;385;48.502;9.230;2022-09-13T00:10:22;48.07;;;3.77;;
805;SDS011;385;48.502;9.230;2022-09-13T00:12:50;44.77;;;3.60;;
805;SDS011;385;48.502;9.230;2022-09-13T00:15:17;47.23;;;3.97;;
805;SDS011;385;48.502;9.230;2022-09-13T00:17:44;45.80;;;3.80;;
805;SDS011;385;48.502;9.230;2022-09-13T00:20:13;46.03;;;4.00;;
805;SDS011;385;48.502;9.230;2022-09-13T00:22:40;47.20;;;3.73;;
805;SDS011;385;48.502;9.230;2022-09-13T00:25:08;47.03;;;3.70;;
805;SDS011;385;48.502;9.230;2022-09-13T00:27:35;55.33;;;4.17;;
805;SDS011;385;48.502;9.230;2022-09-13T00:30:02;51.63;;;4.20;;
805;SDS011;385;48.502;9.230;2022-09-13T00:32:29;51.00;;;4.40;;
805;SDS011;385;48.502;9.230;2022-09-13T00:34:57;50.37;;;4.10;;
805;SDS011;385;48.502;9.230;2022-09-13T00:37:25;49.23;;;4.03;;
805;SDS011;385;48.502;9.230;2022-09-13T00:39:52;45.57;;;3.90;;
805;SDS011;385;48.502;9.230;2022-09-13T00:42:23;45.43;;;3.97;;
805;SDS011;385;48.502;9.230;2022-09-13T00:44:55;47.20;;;4.33;;
805;SDS011;385;48.502;9.230;2022-09-13T00:47:24;47.60;;;4.30;;
805;SDS011;385;48.502;9.230;2022-09-13T00:49:55;49.30;;;4.10;;
805;SDS011;385;48.502;9.230;2022-09-13T00:52:26;49.60;;;4.77;;
805;SDS011;385;48.502;9.230;2022-09-13T00:54:56;48.43;;;4.80;;
805;SDS011;385;48.502;9.230;2022-09-13T00:57:24;47.50;;;5.00;;
805;SDS011;385;48.502;9.230;2022-09-13T00:59:52;49.40;;;5.13;;
805;SDS011;385;48.502;9.230;2022-09-13T01:02:22;52.47;;;5.13;;
805;SDS011;385;48.502;9.230;2022-09-13T01:04:49;44.47;;;4.67;;
805;SDS011;385;48.502;9.230;2022-09-13T01:07:16;67.87;;;5.90;;
805;SDS011;385;48.502;9.230;2022-09-13T01:09:46;58.50;;;4.80;;
805;SDS011;385;48.502;9.230;2022-09-13T01:12:15;45.30;;;4.47;;
805;SDS011;385;48.502;9.230;2022-09-13T01:14:45;44.10;;;4.00;;
805;SDS011;385;48.502;9.230;2022-09-13T01:17:13;42.73;;;3.97;;
805;SDS011;385;48.502;9.230;2022-09-13T01:19:40;47.67;;;4.60;;
805;SDS011;385;48.502;9.230;2022-09-13T01:25:14;54.40;;;4.80;;
805;SDS011;385;48.502;9.230;2022-09-13T01:30:53;43.37;;;3.97;;
805;SDS011;385;48.502;9.230;2022-09-13T01:33:31;45.60;;;4.40;;
805;SDS011;385;48.502;9.230;2022-09-13T01:36:09;43.30;;;4.50;;
805;SDS011;385;48.502;9.230;2022-09-13T01:38:44;46.13;;;4.40;;
805;SDS011;385;48.502;9.230;2022-09-13T01:41:18;49.60;;;5.40;;
805;SDS011;385;48.502;9.230;2022-09-13T01:43:50;45.83;;;5.30;;
805;SDS011;385;48.502;9.230;2022-09-13T01:46:21;42.20;;;4.23;;
805;SDS011;385;48.502;9.230;2022-09-13T01:48:54;45.37;;;4.60;;
805;SDS011;385;48.502;9.230;2022-09-13T01:51:25;46.20;;;4.37;;
805;SDS011;385;48.502;9.230;2022-09-13T01:53:57;43.40;;;4.10;;
805;SDS011;385;48.502;9.230;2022-09-13T01:56:25;46.53;;;4.63;;
805;SDS011;385;48.502;9.230;2022-09-13T01:58:55;48.93;;;4.90;;
805;SDS011;385;48.502;9.230;2022-09-13T02:01:27;45.13;;;4.80;;
805;SDS011;385;48.502;9.230;2022-09-13T02:03:57;43.50;;;4.93;;
805;SDS011;385;48.502;9.230;2022-09-13T02:06:25;43.53;;;4.43;;
805;SDS011;385;48.502;9.230;2022-09-13T02:08:56;50.73;;;4.90;;
805;SDS011;385;48.502;9.230;2022-09-13T02:11:25;52.90;;;5.10;;
805;SDS011;385;48.502;9.230;2022-09-13T02:13:53;49.57;;;4.77;;
805;SDS011;385;48.502;9.230;2022-09-13T02:16:24;46.40;;;4.60;;
805;SDS011;385;48.502;9.230;2022-09-13T02:18:54;46.03;;;4.10;;
805;SDS011;385;48.502;9.230;2022-09-13T02:21:24;45.33;;;4.40;;
805;SDS011;385;48.502;9.230;2022-09-13T02:23:53;50.67;;;4.70;;
805;SDS011;385;48.502;9.230;2022-09-13T02:26:21;43.87;;;4.73;;
805;SDS011;385;48.502;9.230;2022-09-13T02:28:50;49.00;;;4.80;;
805;SDS011;385;48.502;9.230;2022-09-13T02:31:18;47.37;;;4.77;;
805;SDS011;385;48.502;9.230;2022-09-13T02:33:48;47.37;;;4.90;;
805;SDS011;385;48.502;9.230;2022-09-13T02:36:20;50.40;;;5.13;;
805;SDS011;385;48.502;9.230;2022-09-13T02:38:49;47.17;;;4.63;;
805;SDS011;385;48.502;9.230;2022-09-13T02:41:20;44.57;;;4.70;;
805;SDS011;385;48.502;9.230;2022-09-13T02:43:54;49.80;;;4.67;;
805;SDS011;385;48.502;9.230;2022-09-13T02:46:26;49.83;;;4.13;;
805;SDS011;385;48.502;9.230;2022-09-13T02:48:57;45.53;;;4.47;;
805;SDS011;385;48.502;9.230;2022-09-13T02:51:29;46.63;;;4.20;;
805;SDS011;385;48.502;9.230;2022-09-13T02:54:00;45.00;;;4.37;;
805;SDS011;385;48.502;9.230;2022-09-13T02:56:32;51.77;;;5.17;;
805;SDS011;385;48.502;9.230;2022-09-13T02:59:01;49.20;;;3.80;;
805;SDS011;385;48.502;9.230;2022-09-13T03:01:32;46.40;;;4.33;;
805;SDS011;385;48.502;9.230;2022-09-13T03:04:00;46.33;;;4.30;;
805;SDS011;385;48.502;9.230;2022-09-13T03:06:29;45.10;;;4.60;;
805;SDS011;385;48.502;9.230;2022-09-13T03:08:58;46.50;;;4.63;;
805;SDS011;385;48.502;9.230;2022-09-13T03:11:28;50.00;;;5.07;;
805;SDS011;385;48.502;9.230;2022-09-13T03:14:06;49.87;;;4.27;;
805;SDS011;385;48.502;9.230;2022-09-13T03:16:36;49.07;;;5.00;;
805;SDS011;385;48.502;9.230;2022-09-13T03:19:15;47.73;;;4.60;;
805;SDS011;385;48.502;9.230;2022-09-13T03:21:54;48.70;;;4.30;;
805;SDS011;385;48.502;9.230;2022-09-13T03:24:25;45.20;;;4.30;;
805;SDS011;385;48.502;9.230;2022-09-13T03:26:57;46.67;;;4.10;;
805;SDS011;385;48.502;9.230;2022-09-13T03:29:30;45.93;;;4.40;;
805;SDS011;385;48.502;9.230;2022-09-13T03:32:02;45.67;;;4.17;;
805;SDS011;385;48.502;9.230;2022-09-13T03:34:32;47.97;;;4.50;;
805;SDS011;385;48.502;9.230;2022-09-13T03:37:04;57.33;;;4.87;;
805;SDS011;385;48.502;9.230;2022-09-13T03:39:35;47.10;;;4.40;;
805;SDS011;385;48.502;9.230;2022-09-13T03:42:07;50.50;;;4.70;;
805;SDS011;385;48.502;9.230;2022-09-13T03:44:35;48.63;;;4.57;;
805;SDS011;385;48.502;9.230;2022-09-13T03:47:03;55.57;;;4.77;;
805;SDS011;385;48.502;9.230;2022-09-13T03:49:31;45.27;;;4.30;;
805;SDS011;385;48.502;9.230;2022-09-13T03:51:58;47.03;;;4.40;;
805;SDS011;385;48.502;9.230;2022-09-13T03:54:28;51.40;;;4.87;;
805;SDS011;385;48.502;9.230;2022-09-13T03:57:06;46.43;;;4.40;;
805;SDS011;385;48.502;9.230;2022-09-13T03:59:33;50.23;;;4.43;;
805;SDS011;385;48.502;9.230;2022-09-13T04:02:02;43.33;;;4.17;;
805;SDS011;385;48.502;9.230;2022-09-13T04:04:30;48.53;;;4.50;;
805;SDS011;385;48.502;9.230;2022-09-13T04:06:57;49.70;;;4.13;;
805;SDS011;385;48.502;9.230;2022-09-13T04:09:29;44.57;;;4.00;;
805;SDS011;385;48.502;9.230;2022-09-13T04:11:56;46.10;;;4.70;;
805;SDS011;385;48.502;9.230;2022-09-13T04:14:23;47.30;;;4.50;;
805;SDS011;385;48.502;9.230;2022-09-13T04:16:52;47.83;;;4.30;;
805;SDS011;385;48.502;9.230;2022-09-13T04:19:19;46.90;;;4.47;;
805;SDS011;385;48.502;9.230;2022-09-13T04:21:47;46.73;;;4.47;;
805;SDS011;385;48.502;9.230;2022-09-13T04:24:14;44.60;;;4.63;;
805;SDS011;385;48.502;9.230;2022-09-13T04:26:43;47.70;;;4.57;;
805;SDS011;385;48.502;9.230;2022-09-13T04:29:10;47.10;;;4.43;;
805;SDS011;385;48.502;9.230;2022-09-13T04:31:37;53.70;;;4.97;;
805;SDS011;385;48.502;9.230;2022-09-13T04:34:04;56.20;;;4.83;;
805;SDS011;385;48.502;9.230;2022-09-13T04:36:32;49.20;;;4.77;;
805;SDS011;385;48.502;9.230;2022-09-13T04:38:59;45.23;;;4.90;;
805;SDS011;385;48.502;9.230;2022-09-13T04:41:26;45.83;;;4.57;;
805;SDS011;385;48.502;9.230;2022-09-13T04:43:55;52.70;;;5.20;;
805;SDS011;385;48.502;9.230;2022-09-13T04:46:22;53.87;;;4.77;;
805;SDS011;385;48.502;9.230;2022-09-13T04:48:49;46.17;;;5.03;;
805;SDS011;385;48.502;9.230;2022-09-13T04:51:17;46.57;;;5.17;;
805;SDS011;385;48.502;9.230;2022-09-13T04:53:45;47.30;;;4.93;;
805;SDS011;385;48.502;9.230;2022-09-13T04:56:13;43.90;;;4.40;;
805;SDS011;385;48.502;9.230;2022-09-13T04:58:41;46.50;;;5.10;;
805;SDS011;385;48.502;9.230;2022-09-13T05:01:10;43.73;;;4.87;;
805;SDS011;385;48.502;9.230;2022-09-13T05:03:37;45.27;;;4.40;;
805;SDS011;385;48.502;9.230;2022-09-13T05:06:05;48.37;;;4.73;;
805;SDS011;385;48.502;9.230;2022-09-13T05:08:33;49.10;;;5.10;;
805;SDS011;385;48.502;9.230;2022-09-13T05:11:00;61.00;;;5.50;;
805;SDS011;385;48.502;9.230;2022-09-13T05:13:27;44.63;;;4.33;;
805;SDS011;385;48.502;9.230;2022-09-13T05:15:55;48.60;;;4.60;;
805;SDS011;385;48.502;9.230;2022-09-13T05:18:23;49.17;;;4.60;;
805;SDS011;385;48.502;9.230;2022-09-13T05:20:52;45.37;;;4.80;;
805;SDS011;385;48.502;9.230;2022-09-13T05:23:20;60.40;;;5.47;;
805;SDS011;385;48.502;9.230;2022-09-13T05:25:51;48.43;;;4.67;;
805;SDS011;385;48.502;9.230;2022-09-13T05:28:19;43.67;;;4.33;;
805;SDS011;385;48.502;9.230;2022-09-13T05:30:52;45.93;;;4.40;;
805;SDS011;385;48.502;9.230;2022-09-13T05:33:20;45.80;;;5.67;;
805;SDS011;385;48.502;9.230;2022-09-13T05:35:48;51.73;;;4.93;;
805;SDS011;385;48.502;9.230;2022-09-13T05:38:15;48.93;;;4.33;;
805;SDS011;385;48.502;9.230;2022-09-13T05:40:42;50.23;;;4.33;;
805;SDS011;385;48.502;9.230;2022-09-13T05:43:10;44.90;;;4.23;;
805;SDS011;385;48.502;9.230;2022-09-13T05:45:37;48.80;;;4.30;;
805;SDS011;385;48.502;9.230;2022-09-13T05:48:04;55.07;;;5.30;;
805;SDS011;385;48.502;9.230;2022-09-13T05:50:35;47.20;;;4.33;;
805;SDS011;385;48.502;9.230;2022-09-13T05:53:04;51.33;;;5.07;;
805;SDS011;385;48.502;9.230;2022-09-13T05:55:31;50.63;;;4.60;;
805;SDS011;385;48.502;9.230;2022-09-13T05:57:58;47.90;;;4.57;;
805;SDS011;385;48.502;9.230;2022-09-13T06:00:27;43.03;;;4.60;;
805;SDS011;385;48.502;9.230;2022-09-13T06:02:55;43.10;;;3.97;;
805;SDS011;385;48.502;9.230;2022-09-13T06:05:23;43.87;;;5.10;;
805;SDS011;385;48.502;9.230;2022-09-13T06:07:50;53.70;;;4.87;;
805;SDS011;385;48.502;9.230;2022-09-13T06:10:19;85.13;;;6.87;;
805;SDS011;385;48.502;9.230;2022-09-13T06:12:46;51.97;;;4.77;;
805;SDS011;385;48.502;9.230;2022-09-13T06:15:13;52.13;;;5.27;;
805;SDS011;385;48.502;9.230;2022-09-13T06:17:40;65.57;;;5.37;;
805;SDS011;385;48.502;9.230;2022-09-13T06:20:08;65.93;;;5.70;;
805;SDS011;385;48.502;9.230;2022-09-13T06:22:35;50.20;;;4.83;;
805;SDS011;385;48.502;9.230;2022-09-13T06:25:03;55.23;;;5.10;;
805;SDS011;385;48.502;9.230;2022-09-13T06:27:31;50.47;;;4.43;;
805;SDS011;385;48.502;9.230;2022-09-13T06:29:59;56.50;;;4.93;;
805;SDS011;385;48.502;9.230;2022-09-13T06:32:26;47.37;;;4.53;;
805;SDS011;385;48.502;9.230;2022-09-13T06:34:53;44.53;;;4.80;;
805;SDS011;385;48.502;9.230;2022-09-13T06:37:20;43.40;;;4.53;;
805;SDS011;385;48.502;9.230;2022-09-13T06:39:47;49.83;;;4.90;;
805;SDS011;385;48.502;9.230;2022-09-13T06:42:14;54.07;;;5.73;;
805;SDS011;385;48.502;9.230;2022-09-13T06:44:42;50.00;;;4.77;;
805;SDS011;385;48.502;9.230;2022-09-13T06:47:10;43.87;;;4.43;;
805;SDS011;385;48.502;9.230;2022-09-13T06:49:37;53.80;;;4.93;;
805;SDS011;385;48.502;9.230;2022-09-13T06:52:04;43.07;;;4.33;;
805;SDS011;385;48.502;9.230;2022-09-13T06:54:31;46.23;;;4.30;;
805;SDS011;385;48.502;9.230;2022-09-13T06:56:58;57.87;;;5.20;;
805;SDS011;385;48.502;9.230;2022-09-13T06:59:27;48.73;;;4.70;;
805;SDS011;385;48.502;9.230;2022-09-13T07:01:55;43.40;;;4.30;;
805;SDS011;385;48.502;9.230;2022-09-13T07:04:22;46.17;;;4.70;;
805;SDS011;385;48.502;9.230;2022-09-13T07:06:49;47.63;;;4.70;;
805;SDS011;385;48.502;9.230;2022-09-13T07:09:17;48.53;;;4.57;;
805;SDS011;385;48.502;9.230;2022-09-13T07:11:45;57.83;;;5.20;;
805;SDS011;385;48.502;9.230;2022-09-13T07:14:13;49.20;;;4.67;;
805;SDS011;385;48.502;9.230;2022-09-13T07:16:41;57.73;;;5.57;;
805;SDS011;385;48.502;9.230;2022-09-13T07:19:12;43.47;;;4.20;;
805;SDS011;385;48.502;9.230;2022-09-13T07:21:40;49.83;;;4.77;;
805;SDS011;385;48.502;9.230;2022-09-13T07:24:07;47.70;;;4.70;;
805;SDS011;385;48.502;9.230;2022-09-13T07:26:35;48.43;;;4.73;;
805;SDS011;385;48.502;9.230;2022-09-13T07:29:04;48.40;;;4.60;;
805;SDS011;385;48.502;9.230;2022-09-13T07:31:32;50.03;;;4.33;;
805;SDS011;385;48.502;9.230;2022-09-13T07:34:00;41.70;;;4.10;;
805;SDS011;385;48.502;9.230;2022-09-13T07:36:29;46.17;;;4.50;;
805;SDS011;385;48.502;9.230;2022-09-13T07:38:56;44.27;;;4.70;;
805;SDS011;385;48.502;9.230;2022-09-13T07:41:24;52.30;;;4.97;;
805;SDS011;385;48.502;9.230;2022-09-13T07:43:52;54.17;;;5.20;;
805;SDS011;385;48.502;9.230;2022-09-13T07:46:19;51.27;;;4.90;;
805;SDS011;385;48.502;9.230;2022-09-13T07:48:48;47.33;;;4.53;;
805;SDS011;385;48.502;9.230;2022-09-13T07:51:15;60.40;;;5.03;;
805;SDS011;385;48.502;9.230;2022-09-13T07:53:45;51.17;;;5.00;;
805;SDS011;385;48.502;9.230;2022-09-13T07:56:13;47.30;;;4.43;;
805;SDS011;385;48.502;9.230;2022-09-13T07:58:41;53.40;;;4.87;;
805;SDS011;385;48.502;9.230;2022-09-13T08:01:10;75.87;;;6.00;;
805;SDS011;385;48.502;9.230;2022-09-13T08:03:38;45.20;;;4.63;;
805;SDS011;385;48.502;9.230;2022-09-13T08:06:05;45.30;;;4.80;;
805;SDS011;385;48.502;9.230;2022-09-13T08:08:33;47.83;;;4.53;;
805;SDS011;385;48.502;9.230;2022-09-13T08:11:02;44.43;;;4.30;;
805;SDS011;385;48.502;9.230;2022-09-13T08:13:30;51.10;;;4.90;;
805;SDS011;385;48.502;9.230;2022-09-13T08:15:59;43.67;;;4.27;;
805;SDS011;385;48.502;9.230;2022-09-13T08:18:27;48.77;;;4.20;;
805;SDS011;385;48.502;9.230;2022-09-13T08:20:54;46.60;;;4.30;;
805;SDS011;385;48.502;9.230;2022-09-13T08:23:22;48.53;;;4.27;;
805;SDS011;385;48.502;9.230;2022-09-13T08:25:49;45.73;;;4.10;;
805;SDS011;385;48.502;9.230;2022-09-13T08:28:18;45.40;;;4.30;;
805;SDS011;385;48.502;9.230;2022-09-13T08:30:47;47.73;;;3.90;;
805;SDS011;385;48.502;9.230;2022-09-13T08:33:14;51.83;;;6.10;;
805;SDS011;385;48.502;9.230;2022-09-13T08:35:49;57.07;;;4.70;;
805;SDS011;385;48.502;9.230;2022-09-13T08:38:16;52.60;;;4.80;;
805;SDS011;385;48.502;9.230;2022-09-13T08:40:44;50.20;;;4.67;;
805;SDS011;385;48.502;9.230;2022-09-13T08:43:16;54.60;;;4.40;;
805;SDS011;385;48.502;9.230;2022-09-13T08:45:52;56.13;;;4.43;;
805;SDS011;385;48.502;9.230;2022-09-13T08:48:22;51.33;;;4.50;;
805;SDS011;385;48.502;9.230;2022-09-13T08:50:52;58.83;;;4.83;;
805;SDS011;385;48.502;9.230;2022-09-13T08:53:23;47.00;;;4.00;;
805;SDS011;385;48.502;9.230;2022-09-13T08:55:53;44.20;;;3.83;;
805;SDS011;385;48.502;9.230;2022-09-13T08:58:29;51.10;;;4.33;;
805;SDS011;385;48.502;9.230;2022-09-13T09:01:06;46.73;;;4.50;;
805;SDS011;385;48.502;9.230;2022-09-13T09:03:37;42.90;;;3.93;;
805;SDS011;385;48.502;9.230;2022-09-13T09:06:10;48.83;;;4.10;;
805;SDS011;385;48.502;9.230;2022-09-13T09:08:39;48.23;;;4.00;;
805;SDS011;385;48.502;9.230;2022-09-13T09:11:07;54.27;;;4.70;;
805;SDS011;385;48.502;9.230;2022-09-13T09:13:39;63.37;;;4.77;;
805;SDS011;385;48.502;9.230;2022-09-13T09:16:10;46.40;;;4.00;;
805;SDS011;385;48.502;9.230;2022-09-13T09:18:41;47.17;;;4.10;;
805;SDS011;385;48.502;9.230;2022-09-13T09:21:11;46.00;;;4.23;;
805;SDS011;385;48.502;9.230;2022-09-13T09:23:52;42.80;;;3.87;;
805;SDS011;385;48.502;9.230;2022-09-13T09:26:20;45.90;;;4.10;;
805;SDS011;385;48.502;9.230;2022-09-13T09:28:50;43.80;;;4.03;;
805;SDS011;385;48.502;9.230;2022-09-13T09:31:21;45.30;;;3.90;;
805;SDS011;385;48.502;9.230;2022-09-13T09:33:56;47.80;;;4.33;;
805;SDS011;385;48.502;9.230;2022-09-13T09:36:26;42.73;;;3.33;;
805;SDS011;385;48.502;9.230;2022-09-13T09:38:54;44.10;;;3.60;;
805;SDS011;385;48.502;9.230;2022-09-13T09:41:25;48.57;;;3.87;;
805;SDS011;385;48.502;9.230;2022-09-13T09:43:57;46.23;;;4.00;;
805;SDS011;385;48.502;9.230;2022-09-13T09:46:26;49.23;;;4.00;;
805;SDS011;385;48.502;9.230;2022-09-13T09:48:55;46.20;;;3.57;;
805;SDS011;385;48.502;9.230;2022-09-13T09:51:23;44.50;;;3.70;;
805;SDS011;385;48.502;9.230;2022-09-13T09:53:53;41.50;;;3.37;;
805;SDS011;385;48.502;9.230;2022-09-13T09:56:22;49.10;;;3.67;;
805;SDS011;385;48.502;9.230;2022-09-13T09:58:50;52.60;;;3.90;;
805;SDS011;385;48.502;9.230;2022-09-13T10:01:20;50.17;;;4.03;;
805;SDS011;385;48.502;9.230;2022-09-13T10:03:50;49.20;;;3.87;;
805;SDS011;385;48.502;9.230;2022-09-13T10:06:18;57.20;;;4.30;;
805;SDS011;385;48.502;9.230;2022-09-13T10:08:47;44.40;;;3.57;;
805;SDS011;385;48.502;9.230;2022-09-13T10:11:20;55.73;;;4.13;;
805;SDS011;385;48.502;9.230;2022-09-13T10:13:56;50.43;;;4.10;;
805;SDS011;385;48.502;9.230;2022-09-13T10:16:26;58.97;;;4.40;;
805;SDS011;385;48.502;9.230;2022-09-13T10:18:53;48.43;;;4.00;;
805;SDS011;385;48.502;9.230;2022-09-13T10:21:21;49.40;;;3.80;;
805;SDS011;385;48.502;9.230;2022-09-13T10:23:52;43.90;;;3.80;;
805;SDS011;385;48.502;9.230;2022-09-13T10:26:43;45.80;;;3.70;;
805;SDS011;385;48.502;9.230;2022-09-13T10:29:12;51.40;;;4.23;;
805;SDS011;385;48.502;9.230;2022-09-13T10:31:43;49.67;;;3.87;;
805;SDS011;385;48.502;9.230;2022-09-13T10:34:12;43.97;;;3.70;;
805;SDS011;385;48.502;9.230;2022-09-13T10:36:46;70.60;;;5.17;;
805;SDS011;385;48.502;9.230;2022-09-13T10:39:17;47.17;;;3.80;;
805;SDS011;385;48.502;9.230;2022-09-13T10:41:48;43.03;;;3.60;;
805;SDS011;385;48.502;9.230;2022-09-13T10:44:24;44.90;;;3.70;;
805;SDS011;385;48.502;9.230;2022-09-13T10:46:54;48.50;;;3.70;;
805;SDS011;385;48.502;9.230;2022-09-13T10:49:34;46.60;;;3.60;;
805;SDS011;385;48.502;9.230;2022-09-13T10:52:10;45.53;;;3.70;;
805;SDS011;385;48.502;9.230;2022-09-13T10:54:52;47.50;;;3.63;;
805;SDS011;385;48.502;9.230;2022-09-13T10:57:30;47.50;;;3.53;;
805;SDS011;385;48.502;9.230;2022-09-13T10:59:59;43.17;;;3.57;;
805;SDS011;385;48.502;9.230;2022-09-13T11:02:32;50.23;;;3.73;;
805;SDS011;385;48.502;9.230;2022-09-13T11:05:25;49.00;;;4.00;;
805;SDS011;385;48.502;9.230;2022-09-13T11:08:13;47.17;;;3.87;;
805;SDS011;385;48.502;9.230;2022-09-13T11:10:53;47.43;;;3.80;;
805;SDS011;385;48.502;9.230;2022-09-13T11:13:27;48.50;;;3.70;;
805;SDS011;385;48.502;9.230;2022-09-13T11:16:05;51.10;;;3.87;;
805;SDS011;385;48.502;9.230;2022-09-13T11:18:51;45.23;;;3.50;;
805;SDS011;385;48.502;9.230;2022-09-13T11:21:29;46.43;;;3.87;;
805;SDS011;385;48.502;9.230;2022-09-13T11:24:14;47.60;;;3.87;;
805;SDS011;385;48.502;9.230;2022-09-13T11:26:53;48.23;;;3.70;;
805;SDS011;385;48.502;9.230;2022-09-13T11:29:32;52.40;;;3.80;;
805;SDS011;385;48.502;9.230;2022-09-13T11:32:13;43.87;;;3.47;;
805;SDS011;385;48.502;9.230;2022-09-13T11:34:44;50.30;;;3.83;;
805;SDS011;385;48.502;9.230;2022-09-13T11:37:28;43.90;;;3.30;;
805;SDS011;385;48.502;9.230;2022-09-13T11:40:02;50.13;;;3.70;;
805;SDS011;385;48.502;9.230;2022-09-13T11:42:42;44.70;;;3.57;;
805;SDS011;385;48.502;9.230;2022-09-13T11:45:17;45.60;;;3.40;;
805;SDS011;385;48.502;9.230;2022-09-13T11:47:47;42.57;;;3.37;;
805;SDS011;385;48.502;9.230;2022-09-13T11:50:30;47.77;;;3.60;;
805;SDS011;385;48.502;9.230;2022-09-13T11:56:02;42.90;;;3.50;;
805;SDS011;385;48.502;9.230;2022-09-13T11:58:32;45.53;;;3.50;;
805;SDS011;385;48.502;9.230;2022-09-13T12:01:03;45.70;;;3.40;;
805;SDS011;385;48.502;9.230;2022-09-13T12:03:35;45.13;;;3.43;;
805;SDS011;385;48.502;9.230;2022-09-13T12:06:10;41.97;;;3.07;;
805;SDS011;385;48.502;9.230;2022-09-13T12:08:39;57.03;;;3.90;;
805;SDS011;385;48.502;9.230;2022-09-13T12:11:08;46.07;;;3.67;;
805;SDS011;385;48.502;9.230;2022-09-13T12:13:39;47.93;;;3.70;;
805;SDS011;385;48.502;9.230;2022-09-13T12:16:10;44.20;;;3.17;;
805;SDS011;385;48.502;9.230;2022-09-13T12:18:39;45.63;;;3.30;;
805;SDS011;385;48.502;9.230;2022-09-13T12:21:10;44.57;;;3.43;;
805;SDS011;385;48.502;9.230;2022-09-13T12:23:40;45.13;;;3.43;;
805;SDS011;385;48.502;9.230;2022-09-13T12:26:09;43.33;;;3.47;;
805;SDS011;385;48.502;9.230;2022-09-13T12:28:41;45.10;;;3.50;;
805;SDS011;385;48.502;9.230;2022-09-13T12:31:10;41.30;;;3.20;;
805;SDS011;385;48.502;9.230;2022-09-13T12:33:40;47.17;;;3.63;;
805;SDS011;385;48.502;9.230;2022-09-13T12:39:18;49.10;;;3.60;;
805;SDS011;385;48.502;9.230;2022-09-13T12:41:51;60.97;;;4.17;;
805;SDS011;385;48.502;9.230;2022-09-13T12:44:26;44.47;;;3.70;;
805;SDS011;385;48.502;9.230;2022-09-13T12:49:53;41.53;;;3.23;;
805;SDS011;385;48.502;9.230;2022-09-13T12:52:35;55.03;;;3.93;;
805;SDS011;385;48.502;9.230;2022-09-13T12:55:13;44.80;;;3.40;;
805;SDS011;385;48.502;9.230;2022-09-13T12:57:43;43.97;;;3.53;;
805;SDS011;385;48.502;9.230;2022-09-13T13:00:18;50.13;;;3.50;;
805;SDS011;385;48.502;9.230;2022-09-13T13:02:49;53.03;;;3.83;;
805;SDS011;385;48.502;9.230;2022-09-13T13:05:19;53.70;;;4.03;;
805;SDS011;385;48.502;9.230;2022-09-13T13:07:51;46.47;;;3.47;;
805;SDS011;385;48.502;9.230;2022-09-13T13:10:26;53.73;;;3.80;;
805;SDS011;385;48.502;9.230;2022-09-13T13:12:54;62.80;;;4.67;;
805;SDS011;385;48.502;9.230;2022-09-13T13:18:22;58.27;;;4.27;;
805;SDS011;385;48.502;9.230;2022-09-13T13:23:49;49.37;;;3.50;;
805;SDS011;385;48.502;9.230;2022-09-13T13:26:43;48.57;;;3.70;;
805;SDS011;385;48.502;9.230;2022-09-13T13:29:18;47.27;;;3.70;;
805;SDS011;385;48.502;9.230;2022-09-13T13:34:34;50.30;;;3.63;;
805;SDS011;385;48.502;9.230;2022-09-13T13:37:03;47.33;;;3.37;;
805;SDS011;385;48.502;9.230;2022-09-13T13:39:33;47.33;;;3.63;;
805;SDS011;385;48.502;9.230;2022-09-13T13:42:03;59.90;;;4.27;;
805;SDS011;385;48.502;9.230;2022-09-13T13:47:41;43.70;;;3.37;;
805;SDS011;385;48.502;9.230;2022-09-13T13:50:17;55.73;;;4.00;;
805;SDS011;385;48.502;9.230;2022-09-13T13:52:54;52.73;;;3.67;;
805;SDS011;385;48.502;9.230;2022-09-13T13:58:24;45.90;;;3.40;;
805;SDS011;385;48.502;9.230;2022-09-13T14:00:53;46.50;;;3.50;;
805;SDS011;385;48.502;9.230;2022-09-13T14:03:22;56.70;;;4.17;;
805;SDS011;385;48.502;9.230;2022-09-13T14:05:52;51.70;;;4.13;;
805;SDS011;385;48.502;9.230;2022-09-13T14:08:28;49.63;;;3.93;;
805;SDS011;385;48.502;9.230;2022-09-13T14:10:58;63.77;;;4.43;;
805;SDS011;385;48.502;9.230;2022-09-13T14:13:37;51.93;;;3.87;;
805;SDS011;385;48.502;9.230;2022-09-13T14:16:06;41.70;;;3.53;;
805;SDS011;385;48.502;9.230;2022-09-13T14:21:18;44.17;;;3.20;;
805;SDS011;385;48.502;9.230;2022-09-13T14:23:47;47.43;;;3.67;;
805;SDS011;385;48.502;9.230;2022-09-13T14:26:15;63.77;;;4.30;;
805;SDS011;385;48.502;9.230;2022-09-13T14:28:43;47.57;;;3.70;;
805;SDS011;385;48.502;9.230;2022-09-13T14:31:15;43.40;;;3.43;;
805;SDS011;385;48.502;9.230;2022-09-13T14:33:44;62.67;;;4.60;;
805;SDS011;385;48.502;9.230;2022-09-13T14:36:15;57.23;;;4.20;;
805;SDS011;385;48.502;9.230;2022-09-13T14:38:46;49.90;;;3.80;;
805;SDS011;385;48.502;9.230;2022-09-13T14:41:14;43.50;;;3.50;;
805;SDS011;385;48.502;9.230;2022-09-13T14:43:44;42.53;;;3.30;;
805;SDS011;385;48.502;9.230;2022-09-13T14:46:13;45.17;;;3.60;;
805;SDS011;385;48.502;9.230;2022-09-13T14:48:45;41.27;;;3.10;;
805;SDS011;385;48.502;9.230;2022-09-13T14:51:15;42.83;;;3.47;;
805;SDS011;385;48.502;9.230;2022-09-13T14:53:44;48.07;;;3.50;;
805;SDS011;385;48.502;9.230;2022-09-13T14:56:13;44.50;;;3.33;;
805;SDS011;385;48.502;9.230;2022-09-13T14:58:42;46.67;;;3.57;;
805;SDS011;385;48.502;9.230;2022-09-13T15:01:12;43.80;;;3.60;;
805;SDS011;385;48.502;9.230;2022-09-13T15:03:40;46.23;;;3.43;;
805;SDS011;385;48.502;9.230;2022-09-13T15:06:17;52.73;;;3.70;;
805;SDS011;385;48.502;9.230;2022-09-13T15:08:46;49.87;;;3.70;;
805;SDS011;385;48.502;9.230;2022-09-13T15:11:14;51.47;;;3.73;;
805;SDS011;385;48.502;9.230;2022-09-13T15:13:42;52.23;;;3.73;;
805;SDS011;385;48.502;9.230;2022-09-13T15:16:27;47.10;;;3.47;;
805;SDS011;385;48.502;9.230;2022-09-13T15:19:14;70.93;;;4.93;;
805;SDS011;385;48.502;9.230;2022-09-13T15:21:41;43.47;;;3.50;;
805;SDS011;385;48.502;9.230;2022-09-13T15:24:13;44.43;;;3.67;;
805;SDS011;385;48.502;9.230;2022-09-13T15:26:46;46.43;;;3.47;;
805;SDS011;385;48.502;9.230;2022-09-13T15:29:15;78.93;;;4.97;;
805;SDS011;385;48.502;9.230;2022-09-13T15:31:44;52.77;;;3.97;;
805;SDS011;385;48.502;9.230;2022-09-13T15:34:12;48.20;;;3.80;;
805;SDS011;385;48.502;9.230;2022-09-13T15:36:46;43.77;;;3.43;;
805;SDS011;385;48.502;9.230;2022-09-13T15:39:14;42.77;;;3.50;;
805;SDS011;385;48.502;9.230;2022-09-13T15:41:49;41.50;;;3.37;;
805;SDS011;385;48.502;9.230;2022-09-13T15:44:17;44.03;;;3.40;;
805;SDS011;385;48.502;9.230;2022-09-13T15:46:46;44.87;;;3.50;;
805;SDS011;385;48.502;9.230;2022-09-13T15:49:14;42.50;;;3.63;;
805;SDS011;385;48.502;9.230;2022-09-13T15:51:42;46.53;;;3.83;;
805;SDS011;385;48.502;9.230;2022-09-13T15:54:09;42.47;;;3.13;;
805;SDS011;385;48.502;9.230;2022-09-13T15:56:37;45.20;;;3.30;;
805;SDS011;385;48.502;9.230;2022-09-13T15:59:07;43.77;;;3.60;;
805;SDS011;385;48.502;9.230;2022-09-13T16:01:35;50.90;;;3.50;;
805;SDS011;385;48.502;9.230;2022-09-13T16:04:03;66.00;;;4.50;;
805;SDS011;385;48.502;9.230;2022-09-13T16:06:31;67.33;;;5.10;;
805;SDS011;385;48.502;9.230;2022-09-13T16:08:58;55.83;;;4.13;;
805;SDS011;385;48.502;9.230;2022-09-13T16:11:26;40.97;;;3.33;;
805;SDS011;385;48.502;9.230;2022-09-13T16:13:53;51.03;;;4.10;;
805;SDS011;385;48.502;9.230;2022-09-13T16:16:20;45.33;;;3.90;;
805;SDS011;385;48.502;9.230;2022-09-13T16:18:47;46.50;;;3.93;;
805;SDS011;385;48.502;9.230;2022-09-13T16:21:15;63.27;;;4.53;;